Tom Price, Western Australia

1:54 PM AWST on September 04, 2015 (GMT +0800)
Tom Price Weather Centre | | Change Station
CLOSE
Current Station
Personal Weather Station
Location: Tom Price, WA
Elevation: 2378 ft
Nearby Weather Stations

Elev 2378 ft 22.69 °S, 117.79 °E | Updated 5 seconds ago

Clear
Clear
80.0 °F
Feels Like 78 °F
N
5.8
Wind Variable Wind from NW
Gusts 5.8 mph

Today
High -- | Low -- °F
--% Chance of Precip.
Yesterday
High -- | Low -- °F
Precip. -- in
6:17 AM 5:59 PM
Waning Gibbous, 63% visible
Pressure 30.04 in
Visibility 6.2 miles
Clouds
Heat Index 78 °F
Dew Point 31 °F
Humidity 17%
Rainfall 0.00 in
Snow Depth Not available.
UV 4.4 out of 12
Pollen Not available.
Air Quality Not available.
Flu Activity Not available.
METAR YPBO 040500Z AUTO 26007KT 9999 // NCD 29/M01 Q1017
Pressure 30.04 in
Visibility 6.2 miles
Clouds
Heat Index 78 °F
Dew Point 31 °F
Humidity 17%
Rainfall 0.00 in
Snow Depth Not available.
UV 4.4 out of 12
Pollen Not available.
Air Quality Not available.
Flu Activity Not available.
METAR YPBO 040500Z AUTO 26007KT 9999 // NCD 29/M01 Q1017

10-Day Weather Forecast

×

Almanac

Astronomy

Sep. 04, 2015 Rise Set
Actual Time
Civil Twilight
Nautical Twilight
Astronomical Twilight
Moon
Length of Visible Light
Length of Day
Tomorrow will be .
, % of the Moon is Illuminated

Today's Extremes

Country Highs Country Lows

Community

WunderPhotos

Upload Photos

1,852,129 photos uploaded!

WunderBlogs® & News

Nearby

Air Quality

  Air Quality AQ Index Pollutant
Not available.

Snow Depth

Station Depth Elevation

Earthquake Activity

City Distance Mag. Time & Date
Minimum magnitude displayed is 2.5.

Coastal Water Temperatures

Place Temperature

Stations

Nearby Weather Stations

Station Location Temp. Windchill Dew Point Humidity Wind Precip. Elev Updated Type